Assembly Point, New York
Current Conditions -  °F | °C
As of 7:27 AM on Monday 24 Nov 2014 (Local Time) from KGFL Reporting Station
Moderate Rain Moderate Rain  
Wind Chill: 46°   Ceiling: 2100
Heat Index: 46°   Visibility: 1.7mi
Dew Point: 45°   Wind: 0mph
Humidity: 96%   Direction: NA
Pressure: 29.61"   Gusts: NA
Location:  43.4218°N, 73.7084°W
Report Text: KGFL 241227Z AUTO 00000KT 1 3/4SM RA BR FEW010 BKN021 OVC027 08/07 A2961 RMK AO2 P0007 T00780072
Loading
Personal Weather Stations






























Interactive Weather Map New forecast layout! Learn more

10-Day Weather Forecast

Advertisements
Track Severe Weather on mobile